Taperoa, Brazil
Current Conditions -  °F | °C
As of 5:00 PM on Friday 31 Oct 2014 (Local Time) from SBKG Reporting Station
Clear Clear  
Wind Chill: 81°   Ceiling: Unl
Heat Index: 82°   Visibility: 6mi
Dew Point: 63°   Wind: 14mph
Humidity: 54%   Direction: 110°ESE
Pressure: 29.97"   Gusts: NA
Location:  7.21°S, 36.83°W
Report Text: SBKG 312000Z 11012KT CAVOK 27/17 Q1015
Loading
Personal Weather Stations






























Interactive Weather Map
Tropical Storm Tracking
New forecast layout! Learn more

10-Day Weather Forecast

Advertisements
Track Severe Weather on mobile